Time;durP1;ratioP1;P1;durP2;ratioP2;P2;SDS_P1;SDS_P2;PMS_P1;PMS_P2;Temp;Humidity;BMP_temperature;BMP_pressure;BME280_temperature;BME280_humidity;BME280_pressure;Samples;Min_cycle;Max_cycle;Signal;HPM_P1;HPM_P2
2022/06/12 00:00:12;;;;;;;2.95;1.50;;;;;;;;;;4912226;29;20036;-72
2022/06/12 00:02:37;;;;;;;4.65;1.90;;;;;;;;;;4913266;29;20055;-72
2022/06/12 00:05:03;;;;;;;3.17;1.50;;;;;;;;;;4910282;29;20111;-70
2022/06/12 00:07:29;;;;;;;3.40;1.60;;;;;;;;;;4914683;29;20031;-71
2022/06/12 00:09:54;;;;;;;3.47;1.70;;;;;;;;;;4913874;29;20064;-71
2022/06/12 00:12:19;;;;;;;3.83;1.40;;;;;;;;;;4931066;29;20040;-72
2022/06/12 00:14:45;;;;;;;4.03;1.85;;;;;;;;;;4909554;29;20051;-70
2022/06/12 00:17:11;;;;;;;6.72;1.67;;;;;;;;;;4914233;29;20666;-70
2022/06/12 00:19:37;;;;;;;4.63;1.67;;;;;;;;;;4912555;29;20028;-71
2022/06/12 00:22:03;;;;;;;3.00;1.45;;;;;;;;;;4912624;29;20407;-72
2022/06/12 00:24:29;;;;;;;2.75;1.42;;;;;;;;;;4911509;29;20047;-71
2022/06/12 00:26:56;;;;;;;3.67;1.42;;;;;;;;;;4915630;29;20059;-74
2022/06/12 00:29:30;;;;;;;4.82;1.40;;;;;;;;;;4912778;29;20063;-72
2022/06/12 00:32:14;;;;;;;3.17;1.42;;;;;;;;;;4916009;29;20023;-73
2022/06/12 00:34:46;;;;;;;2.78;1.58;;;;;;;;;;4912132;29;20031;-72
2022/06/12 00:37:13;;;;;;;2.65;1.50;;;;;;;;;;4911987;29;20028;-71
2022/06/12 00:39:40;;;;;;;4.30;1.33;;;;;;;;;;4929547;29;20032;-72
2022/06/12 00:42:21;;;;;;;4.75;1.50;;;;;;;;;;4912076;29;20127;-72
2022/06/12 00:44:47;;;;;;;2.75;1.70;;;;;;;;;;4909656;29;20412;-72
2022/06/12 00:47:15;;;;;;;2.30;1.30;;;;;;;;;;4914731;29;20041;-73
2022/06/12 00:49:48;;;;;;;3.03;1.42;;;;;;;;;;4913567;29;20060;-73
2022/06/12 00:52:19;;;;;;;3.92;1.45;;;;;;;;;;4915032;29;20032;-73
2022/06/12 00:54:47;;;;;;;1.90;1.10;;;;;;;;;;4911919;29;20044;-73
2022/06/12 00:57:14;;;;;;;3.13;1.13;;;;;;;;;;4916124;29;20070;-72
2022/06/12 00:59:48;;;;;;;5.15;1.42;;;;;;;;;;4925041;29;20435;-73
2022/06/12 01:02:18;;;;;;;3.05;1.27;;;;;;;;;;4911596;29;20507;-75
2022/06/12 01:07:32;;;;;;;2.20;1.40;;;;;;;;;;4912501;29;20417;-76
2022/06/12 01:10:01;;;;;;;3.42;1.50;;;;;;;;;;4914325;29;20040;-75
2022/06/12 01:12:31;;;;;;;3.58;1.40;;;;;;;;;;4926188;29;20132;-74
2022/06/12 01:15:06;;;;;;;3.67;1.70;;;;;;;;;;4912880;29;20040;-74
2022/06/12 01:17:33;;;;;;;4.88;1.50;;;;;;;;;;4913517;29;20381;-75
2022/06/12 01:20:04;;;;;;;3.05;1.33;;;;;;;;;;4911557;29;20361;-74
2022/06/12 01:22:44;;;;;;;2.95;1.20;;;;;;;;;;4912497;29;20051;-74
2022/06/12 01:25:29;;;;;;;5.70;1.30;;;;;;;;;;4909371;29;20103;-76
2022/06/12 01:28:33;;;;;;;3.10;1.17;;;;;;;;;;4909895;29;20036;-74
2022/06/12 01:31:23;;;;;;;3.72;1.60;;;;;;;;;;4893116;29;20087;-76
2022/06/12 01:34:18;;;;;;;2.15;1.17;;;;;;;;;;4911578;29;20455;-75
2022/06/12 01:36:55;;;;;;;3.38;1.30;;;;;;;;;;4926090;29;20508;-76
2022/06/12 01:39:25;;;;;;;1.13;1.02;;;;;;;;;;4910821;29;20040;-75
2022/06/12 01:42:03;;;;;;;3.58;1.38;;;;;;;;;;4911973;29;20039;-75
2022/06/12 01:44:52;;;;;;;2.92;1.30;;;;;;;;;;4914210;28;20621;-75
2022/06/12 01:47:26;;;;;;;2.33;1.13;;;;;;;;;;4910252;29;20067;-75
2022/06/12 01:50:06;;;;;;;3.30;1.30;;;;;;;;;;4928363;29;20392;-75
2022/06/12 01:52:51;;;;;;;2.10;1.20;;;;;;;;;;4915838;29;20127;-76
2022/06/12 01:55:44;;;;;;;3.05;1.27;;;;;;;;;;4928174;29;20077;-75
2022/06/12 01:58:19;;;;;;;3.13;1.42;;;;;;;;;;4909000;29;20135;-74
2022/06/12 02:00:54;;;;;;;2.55;1.00;;;;;;;;;;4910334;29;20500;-75
2022/06/12 02:03:40;;;;;;;3.13;1.17;;;;;;;;;;4908413;29;20432;-76
2022/06/12 02:06:12;;;;;;;5.75;1.52;;;;;;;;;;4909461;29;20043;-76
2022/06/12 02:08:46;;;;;;;4.68;1.30;;;;;;;;;;4926217;29;20139;-76
2022/06/12 02:14:04;;;;;;;5.78;1.40;;;;;;;;;;4908402;29;20043;-76
2022/06/12 02:16:37;;;;;;;3.58;1.40;;;;;;;;;;4925087;29;20407;-75
2022/06/12 02:19:09;;;;;;;4.22;1.83;;;;;;;;;;4908297;29;20523;-75
2022/06/12 02:21:41;;;;;;;3.17;1.40;;;;;;;;;;4912462;29;20032;-75
2022/06/12 02:24:17;;;;;;;2.63;1.20;;;;;;;;;;4909615;29;20036;-77
2022/06/12 02:26:46;;;;;;;3.53;1.40;;;;;;;;;;4910074;29;20641;-75
2022/06/12 02:29:17;;;;;;;2.47;1.40;;;;;;;;;;4911151;29;20058;-76
2022/06/12 02:31:46;;;;;;;2.80;1.27;;;;;;;;;;4926392;29;20036;-76
2022/06/12 02:34:17;;;;;;;2.28;1.50;;;;;;;;;;4911242;28;20040;-77
2022/06/12 02:36:49;;;;;;;4.70;1.38;;;;;;;;;;4910693;29;20032;-76
2022/06/12 02:39:41;;;;;;;5.10;1.20;;;;;;;;;;4910020;29;20060;-77
2022/06/12 02:42:12;;;;;;;2.75;1.30;;;;;;;;;;4909490;29;20050;-75
2022/06/12 02:44:47;;;;;;;2.67;1.15;;;;;;;;;;4909134;29;20067;-76
2022/06/12 02:47:16;;;;;;;2.42;1.48;;;;;;;;;;4907963;29;20063;-76
2022/06/12 02:49:44;;;;;;;2.67;1.00;;;;;;;;;;4910180;29;20047;-76
2022/06/12 02:52:27;;;;;;;2.90;1.20;;;;;;;;;;4910150;29;20051;-76
2022/06/12 02:55:33;;;;;;;2.65;1.45;;;;;;;;;;4921123;29;20090;-76
2022/06/12 02:58:10;;;;;;;5.40;1.60;;;;;;;;;;4908448;29;20039;-76
2022/06/12 03:00:44;;;;;;;2.42;1.42;;;;;;;;;;4909571;29;20076;-77
2022/06/12 03:03:40;;;;;;;4.57;1.30;;;;;;;;;;4905927;29;20390;-75
2022/06/12 03:06:07;;;;;;;3.60;1.40;;;;;;;;;;4908921;29;20147;-76
2022/06/12 03:08:44;;;;;;;4.22;1.40;;;;;;;;;;4924111;29;20543;-76
2022/06/12 03:11:09;;;;;;;4.93;1.35;;;;;;;;;;4922644;29;22370;-75
2022/06/12 03:13:35;;;;;;;3.63;1.52;;;;;;;;;;4921568;29;20095;-76
2022/06/12 03:16:10;;;;;;;2.05;1.17;;;;;;;;;;4909569;29;20038;-75
2022/06/12 03:18:41;;;;;;;2.97;1.35;;;;;;;;;;4908225;29;20072;-76
2022/06/12 03:21:17;;;;;;;3.03;1.45;;;;;;;;;;4910543;29;20500;-75
2022/06/12 03:23:51;;;;;;;2.08;1.23;;;;;;;;;;4910357;29;20040;-76
2022/06/12 03:27:04;;;;;;;2.28;1.40;;;;;;;;;;4908830;29;20059;-76
2022/06/12 03:29:35;;;;;;;2.85;1.40;;;;;;;;;;4891845;29;20127;-76
2022/06/12 03:32:32;;;;;;;2.90;1.42;;;;;;;;;;4924283;29;20044;-76
2022/06/12 03:35:16;;;;;;;2.50;1.58;;;;;;;;;;4886995;29;20040;-75
2022/06/12 03:37:44;;;;;;;4.07;1.70;;;;;;;;;;4908603;29;20043;-75
2022/06/12 03:40:43;;;;;;;4.15;1.48;;;;;;;;;;4910210;29;20039;-75
2022/06/12 03:43:16;;;;;;;4.93;1.70;;;;;;;;;;4908753;29;20091;-76
2022/06/12 03:46:09;;;;;;;6.47;1.95;;;;;;;;;;4908794;29;20500;-76
2022/06/12 03:48:42;;;;;;;3.67;1.80;;;;;;;;;;4912634;29;20044;-77
2022/06/12 03:51:26;;;;;;;4.28;1.92;;;;;;;;;;4911355;29;20436;-75
2022/06/12 03:54:04;;;;;;;3.80;1.83;;;;;;;;;;4913952;29;20051;-75
2022/06/12 03:59:38;;;;;;;3.72;1.75;;;;;;;;;;4914271;29;20384;-77
2022/06/12 04:02:06;;;;;;;3.00;1.58;;;;;;;;;;4913534;29;20020;-76
2022/06/12 04:04:34;;;;;;;3.13;1.90;;;;;;;;;;4914985;29;20130;-76
2022/06/12 04:07:03;;;;;;;5.85;2.30;;;;;;;;;;4913841;29;20036;-75
2022/06/12 04:09:34;;;;;;;4.57;1.90;;;;;;;;;;4913764;29;20040;-76
2022/06/12 04:12:06;;;;;;;3.20;1.88;;;;;;;;;;4911022;29;20051;-77
2022/06/12 04:14:40;;;;;;;5.40;1.90;;;;;;;;;;4913589;29;20045;-77
2022/06/12 04:17:05;;;;;;;2.97;1.90;;;;;;;;;;4914233;29;20083;-77
2022/06/12 04:19:58;;;;;;;2.22;1.70;;;;;;;;;;4913133;29;20480;-76
2022/06/12 04:22:20;;;;;;;4.30;2.20;;;;;;;;;;4912272;29;20047;-76
2022/06/12 04:24:51;;;;;;;3.65;1.83;;;;;;;;;;4914518;29;20505;-77
2022/06/12 04:27:29;;;;;;;4.22;2.17;;;;;;;;;;4911579;29;20074;-75
2022/06/12 04:29:59;;;;;;;4.40;2.10;;;;;;;;;;4913866;29;20051;-76
2022/06/12 04:32:27;;;;;;;4.60;2.10;;;;;;;;;;4912422;29;20039;-76
2022/06/12 04:34:53;;;;;;;4.57;2.00;;;;;;;;;;4914061;29;20419;-76
2022/06/12 04:37:26;;;;;;;4.53;1.92;;;;;;;;;;4911837;29;20096;-77
2022/06/12 04:39:52;;;;;;;5.97;2.67;;;;;;;;;;4913207;29;20040;-75
2022/06/12 04:42:20;;;;;;;5.93;2.25;;;;;;;;;;4912411;29;20075;-76
2022/06/12 04:44:46;;;;;;;6.60;2.42;;;;;;;;;;4911381;29;20116;-76
2022/06/12 04:47:14;;;;;;;4.85;2.17;;;;;;;;;;4912162;29;20096;-77
2022/06/12 04:49:40;;;;;;;5.95;2.30;;;;;;;;;;4914517;29;20404;-77
2022/06/12 04:52:08;;;;;;;3.80;2.10;;;;;;;;;;4913000;29;20036;-76
2022/06/12 04:54:36;;;;;;;5.05;2.15;;;;;;;;;;4911581;29;20040;-76
2022/06/12 04:57:02;;;;;;;4.22;2.10;;;;;;;;;;4928733;29;20028;-77
2022/06/12 04:59:28;;;;;;;6.63;2.13;;;;;;;;;;4911046;29;20040;-76
2022/06/12 05:01:54;;;;;;;3.67;1.98;;;;;;;;;;4914030;29;20034;-76
2022/06/12 05:04:21;;;;;;;5.45;2.40;;;;;;;;;;4914224;29;20039;-76
2022/06/12 05:06:49;;;;;;;4.65;2.30;;;;;;;;;;4909891;29;20036;-77
2022/06/12 05:09:15;;;;;;;5.18;2.72;;;;;;;;;;4912025;29;20035;-76
2022/06/12 05:11:41;;;;;;;6.13;2.78;;;;;;;;;;4912678;29;20404;-79
2022/06/12 05:14:07;;;;;;;5.72;2.83;;;;;;;;;;4911725;29;20472;-76
2022/06/12 05:16:43;;;;;;;4.03;2.10;;;;;;;;;;4913177;29;20115;-77
2022/06/12 05:19:13;;;;;;;4.47;2.40;;;;;;;;;;4912417;29;20035;-76
2022/06/12 05:21:39;;;;;;;5.00;2.13;;;;;;;;;;4925345;29;20036;-76
2022/06/12 05:24:05;;;;;;;4.13;2.00;;;;;;;;;;4913035;29;20556;-75
2022/06/12 05:26:33;;;;;;;6.35;2.40;;;;;;;;;;4910742;29;20048;-77
2022/06/12 05:28:59;;;;;;;4.35;1.90;;;;;;;;;;4925394;29;20028;-76
2022/06/12 05:31:25;;;;;;;6.72;1.88;;;;;;;;;;4910941;29;20028;-75
2022/06/12 05:33:50;;;;;;;6.57;1.98;;;;;;;;;;4912865;29;20040;-75
2022/06/12 05:36:17;;;;;;;5.78;2.03;;;;;;;;;;4911760;29;20167;-75
2022/06/12 05:38:44;;;;;;;5.90;1.83;;;;;;;;;;4911450;29;20068;-77
2022/06/12 05:41:09;;;;;;;5.57;1.92;;;;;;;;;;4912896;29;20035;-76
2022/06/12 05:43:35;;;;;;;6.43;2.13;;;;;;;;;;4911190;29;20034;-75
2022/06/12 05:46:00;;;;;;;6.47;2.10;;;;;;;;;;4914854;29;20040;-76
2022/06/12 05:48:26;;;;;;;3.83;1.63;;;;;;;;;;4912299;29;20382;-75
2022/06/12 05:50:55;;;;;;;6.45;2.30;;;;;;;;;;4915373;29;20043;-77
2022/06/12 05:53:23;;;;;;;6.65;2.00;;;;;;;;;;4911451;29;20461;-76
2022/06/12 05:55:49;;;;;;;5.38;2.10;;;;;;;;;;4914304;29;20072;-76
2022/06/12 05:58:16;;;;;;;7.82;2.28;;;;;;;;;;4910291;29;20044;-76
2022/06/12 06:00:41;;;;;;;5.97;2.83;;;;;;;;;;4912026;29;20043;-76
2022/06/12 06:03:07;;;;;;;4.38;2.17;;;;;;;;;;4909272;29;20085;-74
2022/06/12 06:05:35;;;;;;;5.50;2.40;;;;;;;;;;4910886;29;20470;-75
2022/06/12 06:08:01;;;;;;;5.75;2.17;;;;;;;;;;4927754;29;20432;-75
2022/06/12 06:10:28;;;;;;;7.80;2.50;;;;;;;;;;4926205;29;20040;-74
2022/06/12 06:12:54;;;;;;;6.47;2.33;;;;;;;;;;4910386;29;20036;-76
2022/06/12 06:15:20;;;;;;;4.40;2.10;;;;;;;;;;4912590;29;20484;-75
2022/06/12 06:17:46;;;;;;;3.70;1.90;;;;;;;;;;4910148;29;20122;-77
2022/06/12 06:20:22;;;;;;;4.40;2.25;;;;;;;;;;4913281;29;20119;-77
2022/06/12 06:22:47;;;;;;;4.80;2.00;;;;;;;;;;4913297;29;20039;-77
2022/06/12 06:25:13;;;;;;;6.65;1.73;;;;;;;;;;4911161;29;20520;-72
2022/06/12 06:27:38;;;;;;;5.63;2.17;;;;;;;;;;4912289;29;20048;-73
2022/06/12 06:30:05;;;;;;;4.85;1.77;;;;;;;;;;4913396;29;20032;-73
2022/06/12 06:32:32;;;;;;;5.10;1.85;;;;;;;;;;4911621;29;20432;-73
2022/06/12 06:34:58;;;;;;;4.32;1.52;;;;;;;;;;4908511;29;20127;-74
2022/06/12 06:37:23;;;;;;;4.13;1.52;;;;;;;;;;4913651;29;20168;-73
2022/06/12 06:39:48;;;;;;;5.00;2.25;;;;;;;;;;4911986;29;20416;-72
2022/06/12 06:42:14;;;;;;;9.10;2.72;;;;;;;;;;4911148;29;20043;-72
2022/06/12 06:47:23;;;;;;;5.05;2.03;;;;;;;;;;4913296;29;20043;-74
2022/06/12 06:49:49;;;;;;;8.88;1.90;;;;;;;;;;4910675;29;20036;-73
2022/06/12 06:52:14;;;;;;;4.38;1.52;;;;;;;;;;4911741;29;20036;-75
2022/06/12 06:54:40;;;;;;;7.32;1.92;;;;;;;;;;4910241;29;20133;-74
2022/06/12 06:57:06;;;;;;;7.05;1.65;;;;;;;;;;4911417;29;20036;-73
2022/06/12 06:59:32;;;;;;;4.00;1.63;;;;;;;;;;4910567;29;20036;-73
2022/06/12 07:01:58;;;;;;;5.72;1.77;;;;;;;;;;4923694;29;20043;-73
2022/06/12 07:04:24;;;;;;;3.63;1.48;;;;;;;;;;4912477;29;20488;-73
2022/06/12 07:06:49;;;;;;;5.05;1.65;;;;;;;;;;4911483;29;20101;-74
2022/06/12 07:09:15;;;;;;;5.45;1.92;;;;;;;;;;4912110;29;20484;-74
2022/06/12 07:11:41;;;;;;;4.68;1.80;;;;;;;;;;4910262;29;20044;-74
2022/06/12 07:14:06;;;;;;;4.30;1.58;;;;;;;;;;4911579;29;20040;-73
2022/06/12 07:16:33;;;;;;;5.15;1.60;;;;;;;;;;4911121;29;20026;-74
2022/06/12 07:18:59;;;;;;;6.32;1.60;;;;;;;;;;4911041;29;20028;-73
2022/06/12 07:21:24;;;;;;;5.95;2.00;;;;;;;;;;4911330;29;20036;-75
2022/06/12 07:23:50;;;;;;;4.57;1.70;;;;;;;;;;4916093;29;20044;-74
2022/06/12 07:26:22;;;;;;;5.43;1.90;;;;;;;;;;4914656;29;20066;-72
2022/06/12 07:28:49;;;;;;;5.60;1.50;;;;;;;;;;4914262;29;20384;-72
2022/06/12 07:31:16;;;;;;;5.15;1.83;;;;;;;;;;4915457;29;20492;-71
2022/06/12 07:33:41;;;;;;;4.05;1.60;;;;;;;;;;4916430;29;20083;-74
2022/06/12 07:36:09;;;;;;;8.25;1.60;;;;;;;;;;4913961;29;20029;-73
2022/06/12 07:38:35;;;;;;;8.77;1.50;;;;;;;;;;4914664;29;20749;-74
2022/06/12 07:41:03;;;;;;;8.05;1.98;;;;;;;;;;4915208;29;20032;-71
2022/06/12 07:43:33;;;;;;;5.15;1.60;;;;;;;;;;4913383;29;20039;-74
2022/06/12 07:46:00;;;;;;;5.82;1.67;;;;;;;;;;4929640;29;20040;-73
2022/06/12 07:48:25;;;;;;;3.78;1.63;;;;;;;;;;4912986;29;20036;-73
2022/06/12 07:50:52;;;;;;;6.82;1.90;;;;;;;;;;4914362;29;20052;-73
2022/06/12 07:53:19;;;;;;;5.60;2.00;;;;;;;;;;4915870;29;20047;-73
2022/06/12 07:55:45;;;;;;;5.88;1.70;;;;;;;;;;4913670;29;20047;-73
2022/06/12 07:58:11;;;;;;;6.28;1.35;;;;;;;;;;4918640;29;20047;-72
2022/06/12 08:00:37;;;;;;;2.08;1.20;;;;;;;;;;4915063;29;20435;-73
2022/06/12 08:03:05;;;;;;;5.38;1.70;;;;;;;;;;4911931;29;20051;-73
2022/06/12 08:05:32;;;;;;;4.65;1.67;;;;;;;;;;4914533;29;20457;-73
2022/06/12 08:07:57;;;;;;;6.13;1.30;;;;;;;;;;4911840;29;20116;-74
2022/06/12 08:10:23;;;;;;;8.05;1.70;;;;;;;;;;4914173;29;20112;-72
2022/06/12 08:12:49;;;;;;;7.88;1.50;;;;;;;;;;4914478;29;20504;-73
2022/06/12 08:15:19;;;;;;;4.07;1.70;;;;;;;;;;4915235;29;20043;-72
2022/06/12 08:17:44;;;;;;;4.63;1.40;;;;;;;;;;4914543;29;20040;-72
2022/06/12 08:20:28;;;;;;;3.70;1.35;;;;;;;;;;4914106;29;20059;-74
2022/06/12 08:23:26;;;;;;;4.25;1.60;;;;;;;;;;4913623;29;20032;-74
2022/06/12 08:25:53;;;;;;;3.33;1.30;;;;;;;;;;4913510;29;20119;-74
2022/06/12 08:28:19;;;;;;;4.22;1.58;;;;;;;;;;4915429;29;20167;-74
2022/06/12 08:30:44;;;;;;;3.65;1.23;;;;;;;;;;4906900;29;20556;-74
2022/06/12 08:33:10;;;;;;;5.10;1.60;;;;;;;;;;4912273;29;20044;-73
2022/06/12 08:35:36;;;;;;;5.53;1.88;;;;;;;;;;4913317;29;20095;-73
2022/06/12 08:38:02;;;;;;;4.53;1.20;;;;;;;;;;4911638;29;20085;-71
2022/06/12 08:40:46;;;;;;;4.60;1.90;;;;;;;;;;4914675;29;20109;-74
2022/06/12 08:43:36;;;;;;;3.67;1.38;;;;;;;;;;4911338;29;20179;-74
2022/06/12 08:46:18;;;;;;;6.30;1.38;;;;;;;;;;4914014;29;20053;-74
2022/06/12 08:48:52;;;;;;;3.37;1.30;;;;;;;;;;4912410;29;20174;-73
2022/06/12 08:51:17;;;;;;;3.88;1.42;;;;;;;;;;4913672;29;20048;-76
2022/06/12 08:53:48;;;;;;;3.33;1.50;;;;;;;;;;4910521;29;20157;-72
2022/06/12 08:56:21;;;;;;;4.38;1.42;;;;;;;;;;4914267;29;20075;-74
2022/06/12 08:58:55;;;;;;;4.13;1.30;;;;;;;;;;4912078;29;20640;-73
2022/06/12 09:01:21;;;;;;;5.65;1.38;;;;;;;;;;4910270;29;20396;-73
2022/06/12 09:03:50;;;;;;;5.13;1.50;;;;;;;;;;4914229;29;20040;-73
2022/06/12 09:06:24;;;;;;;3.67;1.40;;;;;;;;;;4912424;29;20127;-72
2022/06/12 09:08:57;;;;;;;7.00;1.98;;;;;;;;;;4911222;29;20064;-73
2022/06/12 09:11:26;;;;;;;4.60;1.50;;;;;;;;;;4911701;29;20036;-73
2022/06/12 09:14:19;;;;;;;4.80;1.35;;;;;;;;;;4913217;29;20044;-73
2022/06/12 09:17:06;;;;;;;4.45;1.35;;;;;;;;;;4913007;29;20024;-73
2022/06/12 09:19:50;;;;;;;3.85;1.50;;;;;;;;;;4912010;29;20067;-74
2022/06/12 09:22:51;;;;;;;3.95;1.40;;;;;;;;;;4910287;29;20079;-74
2022/06/12 09:25:32;;;;;;;3.67;1.30;;;;;;;;;;4924875;29;20103;-74
2022/06/12 09:28:09;;;;;;;3.80;1.40;;;;;;;;;;4924635;29;20048;-73
2022/06/12 09:30:49;;;;;;;4.75;1.60;;;;;;;;;;4913640;29;20107;-73
2022/06/12 09:33:20;;;;;;;3.70;1.15;;;;;;;;;;4910996;29;20043;-73
2022/06/12 09:36:06;;;;;;;5.35;1.70;;;;;;;;;;4910203;29;20067;-73
2022/06/12 09:39:00;;;;;;;2.72;1.30;;;;;;;;;;4923163;29;20040;-73
2022/06/12 09:41:47;;;;;;;3.03;1.40;;;;;;;;;;4914929;29;20127;-73
2022/06/12 09:44:15;;;;;;;3.78;1.50;;;;;;;;;;4911876;29;20040;-71
2022/06/12 09:46:49;;;;;;;3.45;1.40;;;;;;;;;;4914493;29;20036;-74
2022/06/12 09:49:33;;;;;;;3.85;1.45;;;;;;;;;;4912768;29;20555;-73
2022/06/12 09:52:17;;;;;;;4.85;1.33;;;;;;;;;;4912771;29;20067;-74
2022/06/12 09:54:51;;;;;;;5.30;1.58;;;;;;;;;;4912232;29;20428;-74
2022/06/12 09:57:44;;;;;;;4.60;1.40;;;;;;;;;;4910487;29;20045;-73
2022/06/12 10:00:16;;;;;;;3.97;1.40;;;;;;;;;;4911930;29;20089;-72
2022/06/12 10:03:00;;;;;;;3.38;1.60;;;;;;;;;;4909817;29;20500;-73
2022/06/12 10:05:46;;;;;;;2.50;1.40;;;;;;;;;;4912210;29;20467;-72
2022/06/12 10:08:21;;;;;;;3.45;1.42;;;;;;;;;;4912756;29;20047;-72
2022/06/12 10:11:12;;;;;;;2.95;1.50;;;;;;;;;;4912945;29;20073;-73
2022/06/12 10:13:45;;;;;;;4.33;1.23;;;;;;;;;;4925075;29;20040;-73
2022/06/12 10:16:14;;;;;;;;;;;;;;;;;;4913629;29;20036;-71
2022/06/12 10:18:48;;;;;;;3.28;1.30;;;;;;;;;;4913403;29;19931;-74
2022/06/12 10:21:18;;;;;;;3.88;1.40;;;;;;;;;;4912754;28;20040;-72
2022/06/12 10:23:43;;;;;;;2.85;1.30;;;;;;;;;;4912011;29;20075;-72
2022/06/12 10:26:20;;;;;;;4.05;1.60;;;;;;;;;;4913344;29;20854;-73
2022/06/12 10:29:03;;;;;;;5.55;1.50;;;;;;;;;;4909954;29;20032;-72
2022/06/12 10:31:33;;;;;;;2.10;1.15;;;;;;;;;;4926412;29;20043;-73
2022/06/12 10:34:28;;;;;;;3.97;1.25;;;;;;;;;;4922954;29;20045;-72
2022/06/12 10:36:55;;;;;;;5.72;1.63;;;;;;;;;;4911177;29;20041;-72
2022/06/12 10:39:24;;;;;;;2.97;1.23;;;;;;;;;;4910686;29;20333;-71
2022/06/12 10:41:55;;;;;;;5.53;1.30;;;;;;;;;;4912687;29;20184;-74
2022/06/12 10:44:39;;;;;;;3.22;1.30;;;;;;;;;;4913452;29;20048;-73
2022/06/12 10:47:19;;;;;;;4.13;1.27;;;;;;;;;;4912827;29;20052;-72
2022/06/12 10:49:47;;;;;;;4.72;1.20;;;;;;;;;;4911677;29;20032;-73
2022/06/12 10:52:21;;;;;;;2.35;1.25;;;;;;;;;;4912934;29;20266;-73
2022/06/12 10:54:50;;;;;;;5.63;1.42;;;;;;;;;;4911976;29;20103;-72
2022/06/12 10:58:07;;;;;;;3.42;1.48;;;;;;;;;;4911637;29;20040;-72
2022/06/12 11:00:39;;;;;;;3.45;1.52;;;;;;;;;;4860536;29;20404;-72
2022/06/12 11:03:17;;;;;;;4.78;1.60;;;;;;;;;;4915491;29;20032;-74
2022/06/12 11:06:11;;;;;;;3.17;1.38;;;;;;;;;;4915844;29;20437;-72
2022/06/12 11:09:02;;;;;;;4.05;1.63;;;;;;;;;;4917016;29;20041;-72
2022/06/12 11:11:52;;;;;;;2.25;1.30;;;;;;;;;;4916321;29;20036;-72
2022/06/12 11:14:44;;;;;;;3.10;1.25;;;;;;;;;;4915817;29;20531;-71
2022/06/12 11:17:37;;;;;;;3.40;1.23;;;;;;;;;;4912596;29;20055;-71
2022/06/12 11:20:18;;;;;;;3.25;1.30;;;;;;;;;;4913215;29;20111;-74
2022/06/12 11:23:39;;;;;;;3.85;1.60;;;;;;;;;;4929338;29;20078;-74
2022/06/12 11:26:37;;;;;;;4.28;1.40;;;;;;;;;;4836611;29;20077;-71
2022/06/12 11:29:18;;;;;;;5.07;1.38;;;;;;;;;;4915875;29;20047;-74
2022/06/12 11:32:02;;;;;;;4.05;1.17;;;;;;;;;;4914748;29;20032;-73
2022/06/12 11:34:49;;;;;;;4.60;1.42;;;;;;;;;;4913316;29;20084;-72
2022/06/12 11:37:34;;;;;;;4.10;1.42;;;;;;;;;;4914747;29;20045;-72
2022/06/12 11:40:17;;;;;;;5.47;1.50;;;;;;;;;;4927801;29;20043;-72
2022/06/12 11:42:51;;;;;;;3.78;0.90;;;;;;;;;;4917690;29;20040;-72
2022/06/12 11:45:25;;;;;;;2.72;1.17;;;;;;;;;;4915576;29;20051;-72
2022/06/12 11:48:15;;;;;;;5.13;1.30;;;;;;;;;;4915448;29;20416;-73
2022/06/12 11:51:03;;;;;;;2.65;1.10;;;;;;;;;;4916877;29;20036;-72
2022/06/12 11:53:36;;;;;;;3.17;1.02;;;;;;;;;;4919652;29;20111;-72
2022/06/12 11:56:32;;;;;;;2.65;1.58;;;;;;;;;;4918831;28;20020;-72
2022/06/12 11:59:18;;;;;;;2.47;1.10;;;;;;;;;;4910745;29;20024;-72
2022/06/12 12:02:07;;;;;;;1.85;1.20;;;;;;;;;;4911040;29;20318;-74
2022/06/12 12:05:02;;;;;;;2.58;1.38;;;;;;;;;;4914856;29;20104;-73
2022/06/12 12:07:48;;;;;;;3.78;1.08;;;;;;;;;;4911929;29;21283;-74
2022/06/12 12:10:26;;;;;;;1.33;0.85;;;;;;;;;;4907443;29;20544;-74
2022/06/12 12:13:09;;;;;;;4.28;1.50;;;;;;;;;;4915567;29;20592;-73
2022/06/12 12:15:43;;;;;;;5.03;1.10;;;;;;;;;;4914261;29;20492;-73
2022/06/12 12:18:21;;;;;;;1.48;0.70;;;;;;;;;;4922229;29;20047;-74
2022/06/12 12:20:50;;;;;;;3.17;0.98;;;;;;;;;;4917128;29;20043;-74
2022/06/12 12:23:23;;;;;;;2.08;1.08;;;;;;;;;;4925960;29;20135;-75
2022/06/12 12:25:56;;;;;;;2.58;1.10;;;;;;;;;;4922341;29;20063;-74
2022/06/12 12:28:28;;;;;;;2.28;1.00;;;;;;;;;;4911790;29;20047;-74
2022/06/12 12:31:04;;;;;;;5.90;1.50;;;;;;;;;;4917788;29;20054;-74
2022/06/12 12:33:30;;;;;;;1.45;0.90;;;;;;;;;;4914915;29;20040;-71
2022/06/12 12:41:46;;;;;;;2.05;0.93;;;;;;;;;;4913609;29;20420;-72
2022/06/12 12:44:15;;;;;;;2.03;0.88;;;;;;;;;;4914337;29;20036;-74
2022/06/12 12:46:49;;;;;;;2.08;1.10;;;;;;;;;;4913408;29;20035;-72
2022/06/12 12:49:32;;;;;;;2.60;0.90;;;;;;;;;;4913141;29;20171;-70
2022/06/12 12:52:18;;;;;;;1.77;0.60;;;;;;;;;;4927925;29;20048;-71
2022/06/12 12:54:54;;;;;;;2.25;0.90;;;;;;;;;;4912889;29;20048;-72
2022/06/12 12:57:43;;;;;;;2.13;0.80;;;;;;;;;;4913754;29;20700;-71
2022/06/12 13:00:17;;;;;;;1.80;0.90;;;;;;;;;;4914092;29;20074;-73
2022/06/12 13:02:57;;;;;;;2.17;0.90;;;;;;;;;;4910577;29;20699;-72
2022/06/12 13:05:56;;;;;;;2.30;0.82;;;;;;;;;;4927024;29;20042;-72
2022/06/12 13:08:47;;;;;;;2.75;1.10;;;;;;;;;;4914895;29;20052;-74
2022/06/12 13:12:04;;;;;;;1.95;1.00;;;;;;;;;;4911427;29;20036;-74
2022/06/12 13:14:51;;;;;;;2.42;1.02;;;;;;;;;;4891947;29;20045;-73
2022/06/12 13:17:44;;;;;;;1.92;0.95;;;;;;;;;;4912316;29;20520;-73
2022/06/12 13:20:20;;;;;;;1.65;0.70;;;;;;;;;;4910876;29;20044;-71
2022/06/12 13:23:00;;;;;;;1.63;0.75;;;;;;;;;;4913963;29;20216;-73
2022/06/12 13:25:48;;;;;;;2.17;0.70;;;;;;;;;;4912117;29;20519;-73
2022/06/12 13:28:26;;;;;;;1.08;0.70;;;;;;;;;;4913993;29;20120;-73
2022/06/12 13:30:54;;;;;;;6.25;0.95;;;;;;;;;;4913164;29;20445;-73
2022/06/12 13:33:27;;;;;;;2.90;0.90;;;;;;;;;;4913095;29;20039;-71
2022/06/12 13:36:03;;;;;;;1.77;1.08;;;;;;;;;;4915381;29;20047;-73
2022/06/12 13:38:35;;;;;;;2.60;1.00;;;;;;;;;;4913507;29;20051;-73
2022/06/12 13:41:06;;;;;;;2.33;0.90;;;;;;;;;;4912763;29;20428;-73
2022/06/12 13:43:38;;;;;;;3.57;1.03;;;;;;;;;;4912593;29;20039;-72
2022/06/12 13:46:22;;;;;;;1.77;0.85;;;;;;;;;;4913391;29;20315;-71
2022/06/12 13:48:47;;;;;;;1.10;0.90;;;;;;;;;;4911201;29;20254;-72
2022/06/12 13:51:28;;;;;;;1.80;0.95;;;;;;;;;;4912236;29;20139;-73
2022/06/12 13:54:16;;;;;;;3.03;0.88;;;;;;;;;;4920708;23;20484;-71
2022/06/12 13:56:49;;;;;;;2.60;0.80;;;;;;;;;;4911509;29;20386;-72
2022/06/12 13:59:20;;;;;;;1.65;0.82;;;;;;;;;;4911310;29;20139;-71
2022/06/12 14:01:46;;;;;;;1.60;0.80;;;;;;;;;;4913321;29;20580;-71
2022/06/12 14:04:25;;;;;;;2.05;0.90;;;;;;;;;;4912894;29;20042;-71
2022/06/12 14:06:55;;;;;;;2.58;0.80;;;;;;;;;;4897614;29;20397;-72
2022/06/12 14:09:24;;;;;;;2.35;0.88;;;;;;;;;;4912414;29;20104;-73
2022/06/12 14:11:50;;;;;;;2.13;0.90;;;;;;;;;;4914065;29;20527;-74
2022/06/12 14:14:35;;;;;;;1.88;0.98;;;;;;;;;;4897396;29;20138;-74
2022/06/12 14:17:16;;;;;;;2.22;0.90;;;;;;;;;;4915116;29;20340;-73
2022/06/12 14:19:41;;;;;;;1.38;0.68;;;;;;;;;;4919621;29;20118;-73
2022/06/12 14:22:15;;;;;;;1.30;0.88;;;;;;;;;;4920756;29;20071;-73
2022/06/12 14:24:41;;;;;;;1.33;0.90;;;;;;;;;;4916426;29;20043;-73
2022/06/12 14:27:21;;;;;;;2.40;1.05;;;;;;;;;;4915374;29;20096;-71
2022/06/12 14:29:47;;;;;;;1.50;1.08;;;;;;;;;;4917555;29;20056;-71
2022/06/12 14:32:23;;;;;;;1.95;0.90;;;;;;;;;;4915656;29;20518;-71
2022/06/12 14:35:04;;;;;;;1.98;0.90;;;;;;;;;;4916502;29;20032;-72
2022/06/12 14:37:32;;;;;;;1.38;1.00;;;;;;;;;;4913767;29;20044;-72
2022/06/12 14:39:59;;;;;;;2.40;0.90;;;;;;;;;;4912607;29;20036;-72
2022/06/12 14:42:27;;;;;;;2.20;1.10;;;;;;;;;;4916333;29;20632;-72
2022/06/12 14:44:55;;;;;;;2.45;0.82;;;;;;;;;;4911801;29;20490;-72
2022/06/12 14:47:30;;;;;;;1.90;1.00;;;;;;;;;;4913155;29;20360;-72
2022/06/12 14:49:57;;;;;;;2.38;0.90;;;;;;;;;;4913496;29;20036;-72
2022/06/12 14:52:24;;;;;;;4.32;1.00;;;;;;;;;;4913097;29;20090;-72
2022/06/12 14:54:50;;;;;;;1.90;1.10;;;;;;;;;;4914820;29;20054;-72
2022/06/12 14:57:16;;;;;;;4.32;0.88;;;;;;;;;;4911608;29;20629;-71
2022/06/12 14:59:44;;;;;;;3.47;1.10;;;;;;;;;;4912789;29;20389;-71
2022/06/12 15:02:18;;;;;;;2.00;0.90;;;;;;;;;;4912371;29;20036;-71
2022/06/12 15:04:44;;;;;;;2.63;1.00;;;;;;;;;;4911679;29;20349;-72
2022/06/12 15:07:10;;;;;;;1.30;1.20;;;;;;;;;;4910429;29;20437;-71
2022/06/12 15:09:36;;;;;;;4.03;1.15;;;;;;;;;;4913000;29;20500;-71
2022/06/12 15:12:01;;;;;;;1.95;0.93;;;;;;;;;;4912812;29;20147;-71
2022/06/12 15:14:27;;;;;;;1.20;1.10;;;;;;;;;;4912896;29;20039;-71
2022/06/12 15:16:52;;;;;;;1.65;1.23;;;;;;;;;;4913510;29;20095;-71
2022/06/12 15:19:18;;;;;;;1.45;1.00;;;;;;;;;;4919213;29;20024;-71
2022/06/12 15:21:46;;;;;;;1.33;1.02;;;;;;;;;;4900441;29;20113;-71
2022/06/12 15:24:15;;;;;;;0.95;0.80;;;;;;;;;;4912706;29;20515;-72
2022/06/12 15:32:19;;;;;;;3.67;0.82;;;;;;;;;;4918470;29;20040;-72
2022/06/12 15:34:45;;;;;;;4.07;1.20;;;;;;;;;;4910889;29;20111;-72
2022/06/12 15:37:11;;;;;;;1.67;1.17;;;;;;;;;;4910538;29;20729;-71
2022/06/12 15:39:37;;;;;;;1.08;0.95;;;;;;;;;;4893287;29;20072;-71
2022/06/12 15:42:03;;;;;;;1.38;1.20;;;;;;;;;;4890802;29;20480;-72
2022/06/12 15:44:29;;;;;;;1.10;1.00;;;;;;;;;;4913198;29;20039;-71